createdAt,value
2022-08-02T00:00:55.583Z,73.96
2022-08-02T00:03:24.642Z,74.63
2022-08-02T00:05:53.668Z,76.43
2022-08-02T00:08:21.913Z,74.81
2022-08-02T00:10:48.673Z,74.23
2022-08-02T00:13:15.125Z,74.61
2022-08-02T00:15:41.618Z,75.49
2022-08-02T00:18:08.150Z,75.77
2022-08-02T00:20:34.715Z,76.04
2022-08-02T00:23:01.177Z,77.22
2022-08-02T00:25:27.759Z,77.57
2022-08-02T00:27:54.229Z,76.77
2022-08-02T00:30:20.705Z,76.68
2022-08-02T00:32:47.222Z,76.84
2022-08-02T00:35:14.634Z,76.46
2022-08-02T00:37:41.787Z,77.68
2022-08-02T00:40:09.791Z,78.00
2022-08-02T00:42:36.408Z,80.82
2022-08-02T00:45:03.377Z,78.42
2022-08-02T00:47:30.060Z,77.66
2022-08-02T00:49:59.813Z,79.49
2022-08-02T00:52:26.401Z,78.21
2022-08-02T00:54:52.976Z,78.11
2022-08-02T00:57:19.447Z,77.61
2022-08-02T00:59:46.025Z,77.35
2022-08-02T01:02:12.761Z,77.45
2022-08-02T01:04:39.409Z,77.34
2022-08-02T01:07:12.357Z,77.52
2022-08-02T01:09:41.562Z,77.52
2022-08-02T01:12:08.552Z,76.95
2022-08-02T01:14:35.465Z,76.80
2022-08-02T01:17:20.521Z,78.19
2022-08-02T01:20:11.073Z,78.94
2022-08-02T01:23:02.735Z,77.54
2022-08-02T01:25:56.541Z,79.69
2022-08-02T01:28:28.319Z,80.60
2022-08-02T01:31:18.154Z,80.12
2022-08-02T01:33:51.711Z,79.87
2022-08-02T01:36:20.238Z,80.54
2022-08-02T01:38:50.193Z,78.24
2022-08-02T01:41:20.515Z,80.25
2022-08-02T01:43:49.715Z,78.89
2022-08-02T01:46:18.880Z,79.61
2022-08-02T01:48:47.548Z,79.34
2022-08-02T01:51:17.755Z,78.48
2022-08-02T01:53:48.299Z,78.56
2022-08-02T01:56:17.760Z,78.47
2022-08-02T01:58:47.090Z,80.40
2022-08-02T02:01:18.461Z,79.92
2022-08-02T02:03:47.400Z,80.43
2022-08-02T02:06:15.168Z,79.28
2022-08-02T02:08:43.620Z,77.97
2022-08-02T02:12:11.896Z,77.85
2022-08-02T02:14:02.129Z,78.36
2022-08-02T02:16:31.912Z,77.62
2022-08-02T02:19:01.828Z,77.79
2022-08-02T02:21:28.873Z,78.17
2022-08-02T02:23:59.101Z,77.96
2022-08-02T02:26:31.139Z,78.08
2022-08-02T02:29:01.550Z,79.24
2022-08-02T02:31:29.638Z,78.61
2022-08-02T02:34:03.146Z,78.51
2022-08-02T02:36:31.417Z,78.74
2022-08-02T02:39:02.187Z,79.88
2022-08-02T02:41:29.244Z,79.24
2022-08-02T02:43:58.359Z,79.10
2022-08-02T02:46:26.995Z,80.13
2022-08-02T02:48:54.858Z,79.64
2022-08-02T02:51:22.989Z,81.12
2022-08-02T02:54:33.212Z,80.33
2022-08-02T02:56:38.917Z,80.93
2022-08-02T02:59:07.238Z,80.77
2022-08-02T03:01:55.543Z,80.19
2022-08-02T03:04:22.021Z,80.45
2022-08-02T03:06:48.579Z,80.41
2022-08-02T03:09:15.308Z,79.89
2022-08-02T03:11:42.781Z,79.92
2022-08-02T03:14:11.449Z,82.44
2022-08-02T03:16:47.688Z,82.40
2022-08-02T03:19:14.739Z,80.79
2022-08-02T03:21:46.115Z,80.64
2022-08-02T03:24:12.843Z,82.00
2022-08-02T03:26:40.092Z,80.90
2022-08-02T03:29:10.243Z,81.89
2022-08-02T03:31:40.521Z,81.49
2022-08-02T03:34:07.292Z,80.72
2022-08-02T03:36:36.317Z,81.44
2022-08-02T03:39:04.254Z,81.33
2022-08-02T03:41:31.947Z,81.87
2022-08-02T03:43:59.937Z,81.77
2022-08-02T03:46:27.837Z,81.83
2022-08-02T03:48:55.063Z,81.41
2022-08-02T03:51:22.740Z,81.82
2022-08-02T03:53:49.839Z,81.60
2022-08-02T03:56:16.958Z,81.44
2022-08-02T03:58:48.630Z,81.77
2022-08-02T04:01:16.272Z,81.91
2022-08-02T04:03:42.976Z,82.29
2022-08-02T04:06:09.536Z,82.89
2022-08-02T04:08:38.479Z,82.89
2022-08-02T04:11:24.710Z,82.32
2022-08-02T04:13:51.931Z,82.88
2022-08-02T04:16:23.980Z,82.50
2022-08-02T04:18:59.636Z,83.14
2022-08-02T04:21:48.615Z,84.15
2022-08-02T04:24:20.669Z,84.13
2022-08-02T04:26:53.630Z,83.68
2022-08-02T04:29:21.426Z,83.81
2022-08-02T04:31:48.392Z,83.51
2022-08-02T04:34:15.758Z,84.09
2022-08-02T04:36:43.386Z,85.30
2022-08-02T04:39:10.291Z,84.23
2022-08-02T04:41:47.899Z,83.74
2022-08-02T04:44:14.796Z,84.68
2022-08-02T04:46:43.109Z,85.02
2022-08-02T04:49:10.512Z,84.78
2022-08-02T04:51:42.084Z,83.71
2022-08-02T04:54:10.551Z,83.34
2022-08-02T04:56:40.718Z,83.44
2022-08-02T04:59:07.990Z,82.72
2022-08-02T05:01:35.747Z,83.48
2022-08-02T05:04:02.709Z,84.32
2022-08-02T05:06:29.207Z,84.14
2022-08-02T05:08:55.950Z,83.87
2022-08-02T05:11:34.205Z,83.53
2022-08-02T05:14:04.345Z,83.61
2022-08-02T05:16:32.185Z,84.13
2022-08-02T05:19:02.737Z,84.29
2022-08-02T05:21:29.952Z,84.12
2022-08-02T05:23:56.591Z,83.68
2022-08-02T05:26:23.119Z,82.68
2022-08-02T05:28:49.810Z,82.54
2022-08-02T05:31:16.366Z,81.64
2022-08-02T05:33:43.040Z,80.22
2022-08-02T05:36:09.757Z,80.11
2022-08-02T05:38:37.649Z,79.23
2022-08-02T05:41:07.917Z,78.28
2022-08-02T05:43:34.496Z,77.54
2022-08-02T05:46:01.037Z,76.59
2022-08-02T05:48:31.515Z,75.63
2022-08-02T05:51:11.103Z,72.52
2022-08-02T05:54:03.603Z,71.09
2022-08-02T05:56:36.793Z,72.47
2022-08-02T05:59:10.226Z,71.48
2022-08-02T06:01:40.255Z,70.09
2022-08-02T06:04:09.332Z,71.02
2022-08-02T06:06:43.509Z,70.01
2022-08-02T06:09:16.176Z,69.61
2022-08-02T06:12:00.558Z,68.15
2022-08-02T06:14:32.563Z,66.71
2022-08-02T06:17:00.894Z,67.48
2022-08-02T06:19:31.539Z,63.35
2022-08-02T06:22:33.376Z,61.80
2022-08-02T06:25:03.594Z,59.48
2022-08-02T06:27:30.706Z,58.44
2022-08-02T06:29:57.927Z,58.25
2022-08-02T06:32:27.450Z,58.24
2022-08-02T06:34:54.197Z,56.49
2022-08-02T06:37:47.665Z,55.70
2022-08-02T06:40:31.364Z,54.79
2022-08-02T06:43:06.580Z,55.83
2022-08-02T06:45:34.434Z,58.11
2022-08-02T06:48:01.509Z,57.48
2022-08-02T06:50:30.804Z,54.61
2022-08-02T06:52:57.410Z,52.60
2022-08-02T06:55:24.145Z,51.56
2022-08-02T06:57:51.409Z,53.92
2022-08-02T07:00:20.265Z,50.78
2022-08-02T07:02:46.803Z,52.00
2022-08-02T07:05:13.653Z,52.19
2022-08-02T07:07:40.298Z,51.34
2022-08-02T07:10:07.153Z,53.39
2022-08-02T07:12:34.652Z,51.43
2022-08-02T07:15:04.164Z,49.34
2022-08-02T07:17:31.369Z,47.92
2022-08-02T07:19:58.406Z,49.80
2022-08-02T07:22:27.022Z,46.66
2022-08-02T07:24:55.821Z,48.53
2022-08-02T07:27:22.653Z,48.40
2022-08-02T07:29:49.180Z,44.59
2022-08-02T07:32:20.493Z,44.98
2022-08-02T07:34:50.445Z,41.85
2022-08-02T07:37:35.304Z,46.48
2022-08-02T07:40:12.468Z,42.42
2022-08-02T07:42:42.688Z,42.66
2022-08-02T07:45:10.135Z,43.08
2022-08-02T07:47:38.474Z,42.14
2022-08-02T07:50:06.677Z,39.68
2022-08-02T07:52:33.200Z,42.70
2022-08-02T07:54:59.674Z,42.07
2022-08-02T07:57:26.222Z,43.63
2022-08-02T07:59:52.780Z,41.96
2022-08-02T08:02:19.262Z,42.51
2022-08-02T08:04:45.711Z,42.41
2022-08-02T08:07:12.207Z,44.07
2022-08-02T08:09:42.154Z,44.27
2022-08-02T08:12:10.226Z,44.89
2022-08-02T08:14:38.202Z,44.97
2022-08-02T08:17:06.093Z,45.42
2022-08-02T08:19:43.908Z,44.72
2022-08-02T08:22:21.857Z,44.98
2022-08-02T08:24:48.834Z,43.39
2022-08-02T08:27:16.263Z,45.49
2022-08-02T08:29:43.614Z,42.82
2022-08-02T08:32:15.875Z,41.42
2022-08-02T08:34:45.711Z,41.69
2022-08-02T08:37:17.057Z,42.58
2022-08-02T08:39:57.194Z,42.47
2022-08-02T08:42:28.163Z,42.68
2022-08-02T08:44:56.808Z,43.86
2022-08-02T08:47:28.153Z,44.93
2022-08-02T08:50:04.514Z,45.82
2022-08-02T08:52:36.057Z,44.50
2022-08-02T08:55:05.008Z,44.17
2022-08-02T08:57:34.778Z,42.06
2022-08-02T09:00:01.648Z,44.05
2022-08-02T09:02:28.749Z,45.01
2022-08-02T09:04:55.854Z,45.09
2022-08-02T09:07:23.382Z,45.02
2022-08-02T09:09:50.026Z,44.06
2022-08-02T09:12:22.437Z,43.95
2022-08-02T09:14:50.226Z,42.03
2022-08-02T09:17:18.409Z,41.94
2022-08-02T09:19:46.179Z,43.70
2022-08-02T09:22:15.498Z,44.10
2022-08-02T09:24:51.345Z,44.97
2022-08-02T09:27:20.643Z,46.75
2022-08-02T09:32:47.974Z,45.79
2022-08-02T09:36:05.376Z,45.37
2022-08-02T09:38:17.800Z,45.84
2022-08-02T09:40:44.364Z,46.48
2022-08-02T09:43:11.141Z,46.48
2022-08-02T09:45:37.765Z,46.78
2022-08-02T09:48:08.914Z,47.32
2022-08-02T09:50:40.835Z,47.38
2022-08-02T09:53:15.356Z,45.99
2022-08-02T09:55:42.530Z,45.36
2022-08-02T09:58:18.335Z,44.86
2022-08-02T10:01:01.601Z,44.59
2022-08-02T10:03:35.051Z,45.16
2022-08-02T10:06:04.427Z,43.94
2022-08-02T10:08:33.642Z,44.43
2022-08-02T10:11:01.896Z,45.01
2022-08-02T10:13:34.320Z,43.50
2022-08-02T10:16:02.697Z,44.66
2022-08-02T10:18:38.755Z,44.54
2022-08-02T10:21:11.732Z,44.53
2022-08-02T10:23:40.644Z,44.33
2022-08-02T10:26:07.962Z,44.54
2022-08-02T10:28:34.671Z,43.93
2022-08-02T10:31:04.902Z,43.05
2022-08-02T10:33:35.475Z,43.56
2022-08-02T10:36:06.893Z,43.76
2022-08-02T10:38:35.949Z,44.13
2022-08-02T10:41:03.293Z,44.56
2022-08-02T10:43:32.876Z,41.24
2022-08-02T10:46:27.612Z,40.77
2022-08-02T10:49:36.240Z,42.07
2022-08-02T10:52:00.475Z,42.21
2022-08-02T10:54:28.317Z,43.53
2022-08-02T10:56:56.534Z,43.05
2022-08-02T10:59:31.533Z,42.19
2022-08-02T11:02:04.711Z,42.62
2022-08-02T11:04:37.144Z,41.57
2022-08-02T11:07:22.058Z,40.75
2022-08-02T11:09:49.999Z,40.29
2022-08-02T11:12:21.183Z,39.73
2022-08-02T11:15:07.751Z,39.73
2022-08-02T11:18:06.811Z,40.46
2022-08-02T11:20:33.285Z,40.09
2022-08-02T11:23:43.981Z,40.29
2022-08-02T11:26:30.519Z,41.00
2022-08-02T11:28:59.122Z,40.53
2022-08-02T11:31:25.929Z,38.47
2022-08-02T11:33:52.673Z,39.59
2022-08-02T11:36:19.392Z,38.82
2022-08-02T11:38:49.415Z,39.17
2022-08-02T11:41:46.068Z,40.74
2022-08-02T11:44:11.506Z,40.59
2022-08-02T11:46:38.075Z,40.74
2022-08-02T11:49:19.848Z,40.73
2022-08-02T11:51:59.503Z,39.40
2022-08-02T11:54:38.072Z,40.04
2022-08-02T11:57:21.801Z,38.64
2022-08-02T11:59:50.648Z,38.21
2022-08-02T12:02:18.642Z,38.83
2022-08-02T12:04:58.159Z,37.77
2022-08-02T12:07:34.971Z,37.43
2022-08-02T12:10:11.800Z,38.59
2022-08-02T12:12:51.894Z,38.51
2022-08-02T12:15:41.586Z,38.49
2022-08-02T12:18:34.434Z,38.85
2022-08-02T12:21:01.676Z,39.35
2022-08-02T12:23:28.900Z,38.29
2022-08-02T12:26:15.807Z,38.72
2022-08-02T12:28:43.169Z,38.99
2022-08-02T12:31:13.328Z,38.03
2022-08-02T12:33:52.781Z,37.60
2022-08-02T12:36:21.482Z,37.30
2022-08-02T12:38:56.104Z,37.51
2022-08-02T12:41:30.914Z,37.98
2022-08-02T12:43:58.394Z,38.19
2022-08-02T12:46:25.456Z,38.35
2022-08-02T12:49:16.224Z,38.65
2022-08-02T12:51:51.412Z,38.72
2022-08-02T12:54:38.346Z,38.87
2022-08-02T12:57:16.606Z,38.67
2022-08-02T12:59:49.144Z,38.32
2022-08-02T13:02:16.985Z,37.94
2022-08-02T13:04:50.119Z,38.25
2022-08-02T13:07:17.201Z,37.40
2022-08-02T13:09:45.620Z,37.65
2022-08-02T13:12:12.752Z,36.91
2022-08-02T13:14:42.206Z,37.29
2022-08-02T13:17:09.863Z,37.55
2022-08-02T13:19:37.255Z,37.96
2022-08-02T13:22:04.319Z,37.22
2022-08-02T13:24:40.150Z,37.00
2022-08-02T13:27:20.993Z,37.45
2022-08-02T13:29:48.752Z,37.72
2022-08-02T13:32:15.841Z,37.04
2022-08-02T13:34:42.742Z,36.42
2022-08-02T13:37:09.275Z,35.83
2022-08-02T13:39:35.926Z,36.65
2022-08-02T13:42:02.598Z,35.91
2022-08-02T13:44:29.201Z,34.95
2022-08-02T13:46:56.021Z,34.68
2022-08-02T13:49:51.247Z,34.16
2022-08-02T13:52:09.338Z,34.89
2022-08-02T13:54:36.093Z,33.60
2022-08-02T13:57:02.697Z,34.48
2022-08-02T13:59:57.286Z,33.38
2022-08-02T14:02:18.487Z,34.84
2022-08-02T14:04:45.390Z,34.90
2022-08-02T14:07:12.257Z,34.59
2022-08-02T14:09:38.905Z,34.72
2022-08-02T14:12:07.434Z,34.99
2022-08-02T14:14:33.891Z,34.46
2022-08-02T14:17:01.815Z,35.87
2022-08-02T14:19:28.635Z,36.51
2022-08-02T14:21:55.837Z,35.51
2022-08-02T14:24:38.097Z,35.65
2022-08-02T14:27:04.655Z,34.63
2022-08-02T14:29:31.120Z,34.44
2022-08-02T14:31:57.620Z,33.84
2022-08-02T14:34:24.240Z,33.68
2022-08-02T14:36:53.862Z,34.39
2022-08-02T14:39:20.965Z,34.88
2022-08-02T14:42:00.122Z,35.25
2022-08-02T14:44:30.197Z,35.23
2022-08-02T14:46:57.012Z,34.28
2022-08-02T14:49:25.717Z,34.97
2022-08-02T14:51:56.728Z,33.70
2022-08-02T14:54:30.205Z,34.88
2022-08-02T14:56:59.313Z,33.13
2022-08-02T14:59:26.104Z,33.25
2022-08-02T15:01:52.833Z,33.38
2022-08-02T15:04:19.473Z,32.44
2022-08-02T15:06:46.135Z,32.49
2022-08-02T15:09:13.607Z,32.43
2022-08-02T15:11:48.150Z,31.78
2022-08-02T15:14:18.509Z,31.45
2022-08-02T15:16:58.010Z,32.21
2022-08-02T15:19:37.723Z,32.05
2022-08-02T15:22:15.935Z,32.94
2022-08-02T15:24:44.336Z,33.04
2022-08-02T15:27:13.748Z,33.51
2022-08-02T15:29:41.542Z,34.21
2022-08-02T15:32:08.173Z,34.59
2022-08-02T15:34:34.760Z,34.55
2022-08-02T15:37:01.478Z,34.50
2022-08-02T15:39:28.053Z,34.01
2022-08-02T15:41:54.634Z,33.70
2022-08-02T15:44:21.128Z,34.88
2022-08-02T15:46:47.708Z,34.00
2022-08-02T15:49:14.364Z,33.52
2022-08-02T15:51:40.928Z,33.32
2022-08-02T15:54:07.472Z,33.69
2022-08-02T15:56:33.975Z,34.15
2022-08-02T15:59:00.473Z,33.98
2022-08-02T16:01:32.207Z,33.48
2022-08-02T16:04:05.948Z,33.19
2022-08-02T16:06:32.470Z,33.64
2022-08-02T16:08:59.002Z,34.38
2022-08-02T16:11:25.501Z,34.35
2022-08-02T16:13:55.179Z,34.16
2022-08-02T16:16:23.970Z,33.97
2022-08-02T16:18:50.684Z,34.38
2022-08-02T16:21:17.260Z,34.71
2022-08-02T16:24:02.726Z,35.51
2022-08-02T16:26:31.828Z,35.21
2022-08-02T16:28:59.708Z,34.92
2022-08-02T16:31:26.281Z,35.12
2022-08-02T16:33:56.528Z,35.13
2022-08-02T16:36:25.848Z,35.35
2022-08-02T16:38:54.276Z,34.80
2022-08-02T16:41:21.355Z,33.89
2022-08-02T16:43:48.045Z,34.26
2022-08-02T16:46:14.638Z,33.55
2022-08-02T16:48:41.719Z,33.24
2022-08-02T16:51:18.699Z,33.83
2022-08-02T16:53:59.283Z,34.73
2022-08-02T16:56:27.562Z,34.64
2022-08-02T16:58:54.183Z,33.84
2022-08-02T17:01:27.009Z,34.54
2022-08-02T17:03:56.022Z,34.36
2022-08-02T17:06:26.303Z,35.00
2022-08-02T17:08:56.127Z,35.08
2022-08-02T17:11:23.921Z,34.47
2022-08-02T17:13:51.323Z,34.93
2022-08-02T17:16:20.362Z,35.46
2022-08-02T17:18:53.943Z,35.30
2022-08-02T17:21:20.884Z,35.17
2022-08-02T17:24:04.908Z,35.38
2022-08-02T17:26:35.163Z,35.41
2022-08-02T17:29:14.150Z,35.84
2022-08-02T17:31:46.478Z,36.08
2022-08-02T17:34:30.811Z,36.02
2022-08-02T17:36:57.577Z,36.13
2022-08-02T17:39:24.181Z,36.36
2022-08-02T17:42:00.796Z,36.26
2022-08-02T17:44:37.431Z,36.52
2022-08-02T17:47:07.289Z,36.72
2022-08-02T17:49:42.680Z,36.64
2022-08-02T17:52:49.344Z,36.91
2022-08-02T17:54:57.867Z,36.71
2022-08-02T17:57:24.415Z,36.88
2022-08-02T18:00:11.719Z,36.80
2022-08-02T18:02:39.096Z,36.68
2022-08-02T18:05:06.186Z,36.76
2022-08-02T18:07:49.065Z,36.99
2022-08-02T18:10:18.493Z,37.14
2022-08-02T18:12:45.960Z,37.29
2022-08-02T18:15:14.603Z,37.42
2022-08-02T18:17:44.340Z,37.41
2022-08-02T18:20:12.167Z,36.98
2022-08-02T18:22:39.766Z,37.73
2022-08-02T18:25:09.794Z,36.91
2022-08-02T18:27:39.012Z,37.35
2022-08-02T18:30:07.901Z,37.42
2022-08-02T18:33:01.115Z,37.53
2022-08-02T18:35:22.014Z,37.32
2022-08-02T18:38:00.791Z,37.76
2022-08-02T18:40:30.580Z,37.71
2022-08-02T18:42:57.713Z,37.78
2022-08-02T18:45:24.912Z,37.89
2022-08-02T18:48:11.417Z,38.07
2022-08-02T18:50:43.821Z,38.08
2022-08-02T18:53:13.564Z,38.10
2022-08-02T18:58:26.698Z,38.59
2022-08-02T19:00:55.809Z,38.66
2022-08-02T19:03:22.634Z,38.90
2022-08-02T19:05:52.480Z,38.86
2022-08-02T19:08:20.566Z,39.08
2022-08-02T19:10:53.030Z,39.17
2022-08-02T19:13:19.579Z,39.32
2022-08-02T19:15:46.744Z,39.52
2022-08-02T19:18:14.434Z,39.46
2022-08-02T19:20:40.918Z,39.42
2022-08-02T19:23:15.228Z,40.01
2022-08-02T19:25:50.267Z,40.38
2022-08-02T19:28:25.849Z,40.17
2022-08-02T19:30:52.947Z,40.70
2022-08-02T19:33:55.015Z,40.55
2022-08-02T19:36:09.758Z,40.97
2022-08-02T19:38:43.874Z,40.99
2022-08-02T19:41:13.098Z,41.33
2022-08-02T19:44:26.507Z,41.63
2022-08-02T19:46:26.503Z,42.68
2022-08-02T19:48:53.114Z,43.13
2022-08-02T19:51:55.205Z,43.99
2022-08-02T19:54:06.964Z,45.13
2022-08-02T19:56:37.669Z,45.73
2022-08-02T19:59:13.175Z,46.20
2022-08-02T20:01:43.497Z,46.30
2022-08-02T20:04:14.149Z,47.01
2022-08-02T20:09:33.154Z,48.69
2022-08-02T20:12:12.707Z,48.37
2022-08-02T20:14:39.458Z,49.05
2022-08-02T20:17:20.668Z,49.55
2022-08-02T20:19:47.568Z,49.42
2022-08-02T20:22:15.781Z,49.43
2022-08-02T20:24:42.782Z,50.11
2022-08-02T20:27:12.428Z,49.55
2022-08-02T20:29:46.267Z,49.92
2022-08-02T20:32:21.757Z,51.15
2022-08-02T20:34:49.432Z,50.34
2022-08-02T20:38:00.171Z,51.14
2022-08-02T20:40:05.051Z,51.31
2022-08-02T20:42:31.772Z,52.50
2022-08-02T20:44:59.974Z,53.38
2022-08-02T20:47:36.741Z,52.23
2022-08-02T20:50:30.654Z,53.28
2022-08-02T20:53:03.295Z,56.02
2022-08-02T20:55:31.842Z,54.59
2022-08-02T20:58:01.677Z,53.89
2022-08-02T21:00:29.651Z,53.71
2022-08-02T21:02:56.129Z,54.28
2022-08-02T21:05:26.732Z,53.75
2022-08-02T21:08:14.130Z,54.12
2022-08-02T21:10:43.504Z,54.10
2022-08-02T21:13:18.585Z,54.72
2022-08-02T21:15:45.929Z,54.83
2022-08-02T21:18:21.491Z,54.85
2022-08-02T21:20:57.577Z,55.22
2022-08-02T21:23:24.305Z,55.09
2022-08-02T21:25:57.336Z,55.76
2022-08-02T21:28:24.867Z,55.68
2022-08-02T21:31:09.853Z,55.63
2022-08-02T21:36:22.998Z,56.20
2022-08-02T21:38:58.163Z,57.01
2022-08-02T21:41:24.639Z,56.43
2022-08-02T21:44:07.128Z,57.92
2022-08-02T21:46:33.725Z,57.28
2022-08-02T21:49:02.003Z,57.29
2022-08-02T21:51:29.141Z,58.40
2022-08-02T21:54:17.876Z,58.41
2022-08-02T21:56:48.497Z,59.27
2022-08-02T21:59:17.271Z,58.40
2022-08-02T22:01:52.945Z,58.83
2022-08-02T22:04:19.786Z,58.53
2022-08-02T22:06:47.125Z,58.73
2022-08-02T22:09:17.645Z,59.30
2022-08-02T22:12:03.777Z,59.11
2022-08-02T22:14:30.285Z,59.91
2022-08-02T22:16:56.958Z,59.27
2022-08-02T22:19:23.524Z,59.86
2022-08-02T22:21:54.821Z,60.20
2022-08-02T22:24:29.654Z,60.01
2022-08-02T22:26:56.458Z,61.16
2022-08-02T22:29:23.164Z,60.82
2022-08-02T22:31:49.705Z,61.13
2022-08-02T22:34:37.351Z,60.61
2022-08-02T22:37:05.813Z,60.92
2022-08-02T22:39:32.433Z,61.17
2022-08-02T22:42:02.264Z,61.10
2022-08-02T22:44:33.941Z,60.86
2022-08-02T22:47:07.038Z,62.57
2022-08-02T22:49:38.783Z,62.15
2022-08-02T22:52:20.062Z,61.93
2022-08-02T22:54:46.795Z,62.34
2022-08-02T22:57:13.279Z,64.24
2022-08-02T22:58:46.033Z,38.50
2022-08-02T22:59:06.042Z,47.88
2022-08-02T22:59:40.817Z,61.63
2022-08-02T23:02:08.674Z,60.97
2022-08-02T23:04:36.556Z,61.36
2022-08-02T23:07:03.593Z,61.65
2022-08-02T23:09:30.277Z,61.59
2022-08-02T23:11:56.826Z,60.98
2022-08-02T23:14:23.290Z,60.96
2022-08-02T23:17:08.379Z,63.01
2022-08-02T23:19:53.066Z,61.35
2022-08-02T23:22:29.688Z,62.79
2022-08-02T23:25:00.521Z,60.83
2022-08-02T23:27:27.094Z,61.67
2022-08-02T23:29:53.876Z,61.96
2022-08-02T23:32:22.970Z,61.78
2022-08-02T23:34:52.479Z,61.24
2022-08-02T23:37:18.995Z,61.79
2022-08-02T23:39:46.509Z,61.46
2022-08-02T23:42:13.152Z,63.66
2022-08-02T23:44:39.755Z,61.16
2022-08-02T23:47:06.379Z,60.94
2022-08-02T23:49:33.155Z,61.86
2022-08-02T23:52:01.992Z,62.19
2022-08-02T23:54:28.962Z,62.54
2022-08-02T23:56:55.802Z,63.21
2022-08-02T23:59:22.457Z,63.53
